Batesville, IN

10:59 PM EDT on August 30, 2014 (GMT -0400)
KINBATES2 | Change Station
CLOSE
Current Station
Personal Weather Station
Location: Batesville, IN
Elevation: 974 ft
Nearby Weather Stations

Elev 974 ft 39.29 °N, 85.23 °W | Updated 7 minutes ago

Overcast
Overcast
71.7 °F
Feels Like 71.7 °F
N
0.0
Wind Variable Wind from SSW
Gusts 5.0 mph

Today
High -- | Low -- °F
--% Chance of Precip.
Yesterday
High -- | Low -- °F
Precip. -- in
7:07 AM 8:14 PM
Waxing Crescent, 27% visible
Pressure 30.03 in
Visibility 5.0 miles
Clouds Few 6500 ft
Overcast 10000 ft
Dew Point 69 °F
Humidity 91%
Rainfall 0.05 in
Snow Depth Not available.
UV 0 out of 12
Pollen 10.80 out of 12
Air Quality Not available.
Flu Activity Not available.
METAR KCVG 310152Z 20004KT 5SM BR FEW065 OVC100 22/21 A3006 RMK AO2 RAE45 SLP169 P0000 T02220206

More Conditions Fewer Conditions

Pressure 30.03 in
Visibility 5.0 miles
Clouds Few 6500 ft
Overcast 10000 ft
Dew Point 69 °F
Humidity 91%
Rainfall 0.05 in
Snow Depth Not available.
UV 0 out of 12
Pollen 10.80 out of 12
Air Quality Not available.
Flu Activity Not available.
METAR KCVG 310152Z 20004KT 5SM BR FEW065 OVC100 22/21 A3006 RMK AO2 RAE45 SLP169 P0000 T02220206

More Conditions Fewer Conditions

10-Day Weather Forecast

Almanac

Astronomy

Aug. 30, 2014 Rise Set
Actual Time 7:07 AM EDT 8:14 PM EDT
Civil Twilight 6:39 AM EDT 8:42 PM EDT
Nautical Twilight 6:06 AM EDT 9:15 PM EDT
Astronomical Twilight 5:32 AM EDT 9:49 PM EDT
Moon 11:52 AM EDT (8/30) 10:50 PM EDT (8/30)
Length of Visible Light 14h 02m
Length of Day
13h 07m
Tomorrow will be 2m 28s shorter.
Waxing Crescent, 27% of the Moon is Illuminated
Today
Waxing Crescent
Sep 2
First Quarter
Sep 8
Full
Sep 15
Last Quarter
Sep 24
New

Today's Extremes

State Highs State Lows

Community

WunderPhotos

Upload Photos

1,748,749 photos uploaded!

Nearby

Snow Depth

Station Depth Elevation
No new snow has been reported.

Earthquake Activity

City Distance Mag. Time & Date
No recent earthquake activity has been reported nearby.
Minimum magnitude displayed is 2.5.

Coastal Water Temperatures

Place Temperature
No Stations Reporting

Nearby Weather Stations